< < Back
Terminal Aerodrome Forecast


Current Version              Previous Versions:   1  2  3  4  5  6  7  8  9  

Terminal Aerodrome Forecast

623
FTAK31 PAJN 251725
TAFAHN
TAF
PAHN 251725Z 2518/2618 09009G17KT P6SM -RA BKN017 OVC025
     FM252000 12012KT P6SM -RA BKN020 OVC030
     FM260800 10008KT P6SM VCSH OVC025
     FM261600 10007KT P6SM -RA OVC020
      AMD LTD TO CLD VIS AND WIND=



Latest METAR

035
SAUS70 KWBC 260400
MTRAHN
METAR KAHN 260351Z AUTO 09007KT 10SM CLR 28/17 A3011 RMK AO2 SLP185
T02780172


USA.gov is the U.S. government's official web portal to all federal, state and local government web resources and services.